EZY708 EGAA-ENGM
Flight info
| Callsign | EZY708 |
|---|---|
| Flight time | 1h 33m |
| Altitude | 25000 |
| Route | BLACA P600 TRN/N0445F350 DCT KLONN/N0451F370 DCT ADOPI |
| Aircraft | A320/M-SDE3FGHIRWY/LB1 |
Departure
| Time | 2026-05-06 18:12 |
|---|---|
| Airport | Belfast International Airport (EGAA) |
Arrival
| Time | 2026-05-06 19:45 |
|---|---|
| Airport | Oslo-Gardermoen International Airport (ENGM) |
| Time | Latitude | Longitude | Altitude | Speed | Heading |
|---|---|---|---|---|---|
| 2026-05-06 17:40 | 54.65996 | -6.21771 | 272 ft | 0 kts | 245° |
| 2026-05-06 18:02 | 54.66006 | -6.21734 | 272 ft | 4 kts | 239° |
| 2026-05-06 18:03 | 54.66022 | -6.21697 | 272 ft | 4 kts | 221° |
| 2026-05-06 18:03 | 54.66040 | -6.21680 | 272 ft | 4 kts | 154° |
| 2026-05-06 18:03 | 54.66045 | -6.21684 | 273 ft | 0 kts | 129° |
| 2026-05-06 18:06 | 54.66032 | -6.21660 | 274 ft | 7 kts | 135° |
| 2026-05-06 18:07 | 54.65968 | -6.21612 | 272 ft | 9 kts | 158° |
| 2026-05-06 18:07 | 54.65918 | -6.21631 | 274 ft | 7 kts | 229° |
| 2026-05-06 18:07 | 54.65901 | -6.21697 | 272 ft | 5 kts | 248° |
| 2026-05-06 18:07 | 54.65888 | -6.21749 | 272 ft | 4 kts | 245° |
| 2026-05-06 18:08 | 54.65855 | -6.21870 | 272 ft | 16 kts | 245° |
| 2026-05-06 18:08 | 54.65809 | -6.22039 | 272 ft | 16 kts | 244° |
| 2026-05-06 18:08 | 54.65773 | -6.22215 | 272 ft | 15 kts | 258° |
| 2026-05-06 18:08 | 54.65761 | -6.22389 | 272 ft | 14 kts | 263° |
| 2026-05-06 18:09 | 54.65751 | -6.22542 | 275 ft | 12 kts | 263° |
| 2026-05-06 18:09 | 54.65744 | -6.22671 | 272 ft | 10 kts | 267° |
| 2026-05-06 18:09 | 54.65737 | -6.22782 | 276 ft | 10 kts | 259° |
| 2026-05-06 18:09 | 54.65715 | -6.22887 | 272 ft | 17 kts | 241° |
| 2026-05-06 18:10 | 54.65681 | -6.22974 | 273 ft | 17 kts | 231° |
| 2026-05-06 18:10 | 54.65608 | -6.23147 | 272 ft | 18 kts | 234° |
| 2026-05-06 18:10 | 54.65526 | -6.23317 | 272 ft | 18 kts | 214° |
| 2026-05-06 18:10 | 54.65432 | -6.23388 | 272 ft | 9 kts | 201° |
| 2026-05-06 18:11 | 54.65376 | -6.23403 | 272 ft | 7 kts | 174° |
| 2026-05-06 18:11 | 54.65325 | -6.23369 | 272 ft | 10 kts | 156° |
| 2026-05-06 18:11 | 54.65283 | -6.23315 | 272 ft | 5 kts | 92° |
| 2026-05-06 18:11 | 54.65296 | -6.23259 | 272 ft | 8 kts | 66° |
| 2026-05-06 18:12 | 54.65404 | -6.22856 | 272 ft | 74 kts | 64° |
| 2026-05-06 18:12 | 54.65709 | -6.21727 | 277 ft | 134 kts | 65° |
| 2026-05-06 18:12 | 54.66164 | -6.20089 | 579 ft | 150 kts | 67° |
| 2026-05-06 18:12 | 54.66583 | -6.18522 | 1232 ft | 146 kts | 69° |
| 2026-05-06 18:13 | 54.67023 | -6.16868 | 1598 ft | 160 kts | 69° |
| 2026-05-06 18:13 | 54.67520 | -6.15042 | 1827 ft | 178 kts | 68° |
| 2026-05-06 18:13 | 54.68110 | -6.12868 | 1731 ft | 222 kts | 67° |
| 2026-05-06 18:13 | 54.68788 | -6.10331 | 2130 ft | 241 kts | 70° |
| 2026-05-06 18:14 | 54.69378 | -6.07522 | 2741 ft | 254 kts | 73° |
| 2026-05-06 18:14 | 54.69982 | -6.04606 | 3516 ft | 260 kts | 72° |
| 2026-05-06 18:14 | 54.70617 | -6.01656 | 4361 ft | 263 kts | 71° |
| 2026-05-06 18:14 | 54.71265 | -5.98699 | 5194 ft | 266 kts | 71° |
| 2026-05-06 18:15 | 54.71922 | -5.95710 | 5973 ft | 269 kts | 70° |
| 2026-05-06 18:15 | 54.72597 | -5.92656 | 6804 ft | 271 kts | 70° |
| 2026-05-06 18:15 | 54.73272 | -5.89599 | 7576 ft | 275 kts | 70° |
| 2026-05-06 18:15 | 54.73939 | -5.86468 | 8283 ft | 281 kts | 71° |
| 2026-05-06 18:16 | 54.74605 | -5.83230 | 8909 ft | 289 kts | 72° |
| 2026-05-06 18:16 | 54.75276 | -5.79930 | 9624 ft | 293 kts | 72° |
| 2026-05-06 18:16 | 54.75953 | -5.76572 | 10336 ft | 297 kts | 71° |
| 2026-05-06 18:16 | 54.76638 | -5.73151 | 10894 ft | 308 kts | 71° |
| 2026-05-06 18:17 | 54.77353 | -5.69538 | 11202 ft | 326 kts | 71° |
| 2026-05-06 18:17 | 54.78107 | -5.65739 | 11569 ft | 341 kts | 71° |
| 2026-05-06 18:17 | 54.78905 | -5.61765 | 11859 ft | 358 kts | 70° |
| 2026-05-06 18:17 | 54.79766 | -5.57584 | 12092 ft | 375 kts | 70° |
| 2026-05-06 18:18 | 54.80668 | -5.53306 | 12637 ft | 380 kts | 69° |
| 2026-05-06 18:18 | 54.81593 | -5.48980 | 13202 ft | 385 kts | 69° |
| 2026-05-06 18:18 | 54.82538 | -5.44605 | 13775 ft | 389 kts | 69° |
| 2026-05-06 18:18 | 54.83491 | -5.40189 | 14391 ft | 392 kts | 69° |
| 2026-05-06 18:19 | 54.84440 | -5.35749 | 15012 ft | 394 kts | 69° |
| 2026-05-06 18:19 | 54.85386 | -5.31267 | 15579 ft | 397 kts | 69° |
| 2026-05-06 18:19 | 54.86304 | -5.26787 | 16096 ft | 401 kts | 70° |
| 2026-05-06 18:19 | 54.87355 | -5.22215 | 16630 ft | 404 kts | 62° |
| 2026-05-06 18:20 | 54.88813 | -5.18114 | 17147 ft | 405 kts | 50° |
| 2026-05-06 18:20 | 54.90755 | -5.14578 | 17653 ft | 406 kts | 38° |
| 2026-05-06 18:20 | 54.93078 | -5.11807 | 18187 ft | 406 kts | 26° |
| 2026-05-06 18:20 | 54.95614 | -5.09639 | 18696 ft | 407 kts | 23° |
| 2026-05-06 18:21 | 54.98170 | -5.07463 | 19216 ft | 410 kts | 24° |
| 2026-05-06 18:21 | 55.00732 | -5.05241 | 19699 ft | 413 kts | 24° |
| 2026-05-06 18:21 | 55.03306 | -5.02988 | 20166 ft | 416 kts | 24° |
| 2026-05-06 18:21 | 55.05897 | -5.00713 | 20614 ft | 418 kts | 24° |
| 2026-05-06 18:22 | 55.08504 | -4.98425 | 21051 ft | 421 kts | 24° |
| 2026-05-06 18:22 | 55.11126 | -4.96128 | 21474 ft | 423 kts | 24° |
| 2026-05-06 18:22 | 55.13766 | -4.93819 | 21883 ft | 426 kts | 23° |
| 2026-05-06 18:22 | 55.16418 | -4.91499 | 22277 ft | 428 kts | 23° |
| 2026-05-06 18:23 | 55.19090 | -4.89164 | 22672 ft | 430 kts | 23° |
| 2026-05-06 18:23 | 55.21777 | -4.86811 | 23045 ft | 433 kts | 23° |
| 2026-05-06 18:23 | 55.24473 | -4.84443 | 23410 ft | 435 kts | 23° |
| 2026-05-06 18:23 | 55.27182 | -4.82058 | 23759 ft | 437 kts | 23° |
| 2026-05-06 18:24 | 55.29838 | -4.79408 | 24100 ft | 442 kts | 31° |
| 2026-05-06 18:24 | 55.32258 | -4.76016 | 24416 ft | 449 kts | 40° |
| 2026-05-06 18:24 | 55.34374 | -4.71950 | 24751 ft | 453 kts | 47° |
| 2026-05-06 18:24 | 55.36382 | -4.67660 | 24976 ft | 454 kts | 47° |
| 2026-05-06 18:25 | 55.38398 | -4.63353 | 25029 ft | 460 kts | 47° |
| 2026-05-06 18:25 | 55.40441 | -4.58991 | 25025 ft | 462 kts | 47° |
| 2026-05-06 18:25 | 55.42458 | -4.54678 | 25026 ft | 463 kts | 47° |
| 2026-05-06 18:25 | 55.44529 | -4.50241 | 25027 ft | 463 kts | 47° |
| 2026-05-06 18:26 | 55.46546 | -4.45909 | 25026 ft | 464 kts | 47° |
| 2026-05-06 18:26 | 55.48590 | -4.41507 | 25026 ft | 464 kts | 47° |
| 2026-05-06 18:26 | 55.50627 | -4.37110 | 25027 ft | 464 kts | 47° |
| 2026-05-06 18:26 | 55.52666 | -4.32698 | 25026 ft | 464 kts | 47° |
| 2026-05-06 18:27 | 55.54701 | -4.28292 | 25026 ft | 464 kts | 47° |
| 2026-05-06 18:27 | 55.56742 | -4.23872 | 25026 ft | 464 kts | 47° |
| 2026-05-06 18:27 | 55.58782 | -4.19450 | 25022 ft | 464 kts | 47° |
| 2026-05-06 18:27 | 55.60820 | -4.15018 | 25021 ft | 464 kts | 47° |
| 2026-05-06 18:28 | 55.62853 | -4.10584 | 25020 ft | 464 kts | 47° |
| 2026-05-06 18:28 | 55.64884 | -4.06146 | 25019 ft | 464 kts | 47° |
| 2026-05-06 18:28 | 55.66916 | -4.01701 | 25025 ft | 464 kts | 47° |
| 2026-05-06 18:28 | 55.68945 | -3.97249 | 25017 ft | 464 kts | 47° |
| 2026-05-06 18:29 | 55.70972 | -3.92794 | 25016 ft | 464 kts | 47° |
| 2026-05-06 18:29 | 55.72996 | -3.88329 | 25018 ft | 464 kts | 48° |
| 2026-05-06 18:29 | 55.75019 | -3.83857 | 25019 ft | 464 kts | 48° |
| 2026-05-06 18:29 | 55.77039 | -3.79387 | 25018 ft | 464 kts | 48° |
| 2026-05-06 18:30 | 55.79060 | -3.74909 | 25025 ft | 464 kts | 48° |
| 2026-05-06 18:30 | 55.81080 | -3.70436 | 25022 ft | 464 kts | 48° |
| 2026-05-06 18:30 | 55.83099 | -3.65960 | 25017 ft | 464 kts | 48° |
| 2026-05-06 18:30 | 55.85117 | -3.61484 | 25017 ft | 464 kts | 48° |
| 2026-05-06 18:31 | 55.87136 | -3.56992 | 25017 ft | 464 kts | 48° |
| 2026-05-06 18:31 | 55.89148 | -3.52503 | 25014 ft | 464 kts | 48° |
| 2026-05-06 18:31 | 55.91159 | -3.48000 | 25005 ft | 464 kts | 48° |
| 2026-05-06 18:31 | 55.93166 | -3.43491 | 25020 ft | 465 kts | 48° |
| 2026-05-06 18:32 | 55.95173 | -3.38971 | 25022 ft | 464 kts | 48° |
| 2026-05-06 18:32 | 55.97177 | -3.34457 | 25023 ft | 464 kts | 48° |
| 2026-05-06 18:32 | 55.99178 | -3.29942 | 25023 ft | 464 kts | 48° |
| 2026-05-06 18:32 | 56.01176 | -3.25433 | 25024 ft | 464 kts | 48° |
| 2026-05-06 18:33 | 56.03178 | -3.20912 | 25016 ft | 464 kts | 48° |
| 2026-05-06 18:33 | 56.05180 | -3.16384 | 25007 ft | 464 kts | 48° |
| 2026-05-06 18:33 | 56.07184 | -3.11838 | 25015 ft | 465 kts | 48° |
| 2026-05-06 18:33 | 56.09187 | -3.07283 | 25013 ft | 466 kts | 48° |
| 2026-05-06 18:34 | 56.11186 | -3.02723 | 25016 ft | 465 kts | 49° |
| 2026-05-06 18:34 | 56.13183 | -2.98151 | 25020 ft | 466 kts | 49° |
| 2026-05-06 18:34 | 56.15180 | -2.93576 | 25022 ft | 466 kts | 49° |
| 2026-05-06 18:34 | 56.17181 | -2.88987 | 25027 ft | 468 kts | 49° |
| 2026-05-06 18:35 | 56.19195 | -2.84360 | 25143 ft | 474 kts | 49° |
| 2026-05-06 18:35 | 56.21234 | -2.79667 | 25269 ft | 478 kts | 49° |
| 2026-05-06 18:35 | 56.23284 | -2.74939 | 25395 ft | 482 kts | 49° |
| 2026-05-06 18:35 | 56.25348 | -2.70168 | 25522 ft | 484 kts | 49° |
| 2026-05-06 18:36 | 56.27417 | -2.65374 | 25703 ft | 485 kts | 49° |
| 2026-05-06 18:36 | 56.29482 | -2.60577 | 25926 ft | 485 kts | 49° |
| 2026-05-06 18:36 | 56.31545 | -2.55779 | 26160 ft | 484 kts | 49° |
| 2026-05-06 18:36 | 56.33603 | -2.50987 | 26397 ft | 483 kts | 49° |
| 2026-05-06 18:37 | 56.35656 | -2.46201 | 26628 ft | 482 kts | 49° |
| 2026-05-06 18:37 | 56.37013 | -2.43032 | 26776 ft | 482 kts | 49° |
| 2026-05-06 18:37 | 56.39725 | -2.36691 | 27093 ft | 481 kts | 49° |
| 2026-05-06 18:37 | 56.41759 | -2.31916 | 27337 ft | 480 kts | 49° |
| 2026-05-06 18:38 | 56.43790 | -2.27134 | 27581 ft | 479 kts | 49° |
| 2026-05-06 18:38 | 56.45818 | -2.22355 | 27825 ft | 479 kts | 49° |
| 2026-05-06 18:38 | 56.47840 | -2.17581 | 28070 ft | 478 kts | 49° |
| 2026-05-06 18:38 | 56.49856 | -2.12812 | 28321 ft | 477 kts | 49° |
| 2026-05-06 18:39 | 56.51870 | -2.08037 | 28560 ft | 476 kts | 49° |
| 2026-05-06 18:39 | 56.53876 | -2.03268 | 28807 ft | 475 kts | 49° |
| 2026-05-06 18:39 | 56.55880 | -1.98503 | 29049 ft | 475 kts | 49° |
| 2026-05-06 18:40 | 56.59870 | -1.88993 | 29532 ft | 473 kts | 49° |
| 2026-05-06 18:40 | 56.61858 | -1.84232 | 29775 ft | 473 kts | 49° |
| 2026-05-06 18:40 | 56.63837 | -1.79471 | 30017 ft | 472 kts | 49° |
| 2026-05-06 18:40 | 56.65815 | -1.74701 | 30235 ft | 472 kts | 49° |
| 2026-05-06 18:41 | 56.67787 | -1.69940 | 30469 ft | 471 kts | 49° |
| 2026-05-06 18:41 | 56.69758 | -1.65178 | 30689 ft | 471 kts | 49° |
| 2026-05-06 18:41 | 56.71726 | -1.60423 | 30911 ft | 471 kts | 49° |
| 2026-05-06 18:41 | 56.73695 | -1.55667 | 31134 ft | 470 kts | 49° |
| 2026-05-06 18:42 | 56.75665 | -1.50903 | 31358 ft | 470 kts | 49° |
| 2026-05-06 18:42 | 56.77622 | -1.46149 | 31587 ft | 469 kts | 49° |
| 2026-05-06 18:42 | 56.79581 | -1.41379 | 31794 ft | 469 kts | 49° |
| 2026-05-06 18:42 | 56.81531 | -1.36616 | 31986 ft | 469 kts | 49° |
| 2026-05-06 18:43 | 56.83483 | -1.31832 | 32212 ft | 469 kts | 49° |
| 2026-05-06 18:43 | 56.85429 | -1.27052 | 32428 ft | 469 kts | 49° |
| 2026-05-06 18:43 | 56.87376 | -1.22264 | 32641 ft | 468 kts | 49° |
| 2026-05-06 18:43 | 56.89315 | -1.17485 | 32846 ft | 468 kts | 49° |
| 2026-05-06 18:44 | 56.91228 | -1.12764 | 33050 ft | 468 kts | 49° |
| 2026-05-06 18:44 | 56.93162 | -1.07983 | 33244 ft | 467 kts | 49° |
| 2026-05-06 18:44 | 56.95094 | -1.03204 | 33448 ft | 467 kts | 49° |
| 2026-05-06 18:44 | 56.97031 | -0.98418 | 33642 ft | 467 kts | 49° |
| 2026-05-06 18:45 | 56.98960 | -0.93638 | 33854 ft | 466 kts | 49° |
| 2026-05-06 18:45 | 57.00882 | -0.88856 | 34051 ft | 466 kts | 49° |
| 2026-05-06 18:45 | 57.02803 | -0.84059 | 34239 ft | 466 kts | 49° |
| 2026-05-06 18:45 | 57.04072 | -0.80880 | 34353 ft | 467 kts | 49° |
| 2026-05-06 18:46 | 57.06642 | -0.74438 | 34591 ft | 467 kts | 49° |
| 2026-05-06 18:46 | 57.08562 | -0.69622 | 34754 ft | 468 kts | 49° |
| 2026-05-06 18:46 | 57.10485 | -0.64794 | 34914 ft | 468 kts | 50° |
| 2026-05-06 18:46 | 57.12407 | -0.59951 | 35040 ft | 469 kts | 50° |
| 2026-05-06 18:47 | 57.14331 | -0.55091 | 35064 ft | 470 kts | 50° |
| 2026-05-06 18:47 | 57.18171 | -0.45333 | 35063 ft | 470 kts | 50° |
| 2026-05-06 18:48 | 57.21990 | -0.35625 | 35061 ft | 471 kts | 50° |
| 2026-05-06 18:48 | 57.25854 | -0.25764 | 35065 ft | 471 kts | 50° |
| 2026-05-06 18:49 | 57.29652 | -0.16010 | 35067 ft | 471 kts | 50° |
| 2026-05-06 18:49 | 57.33499 | -0.06112 | 35063 ft | 471 kts | 50° |
| 2026-05-06 18:50 | 57.37292 | 0.03676 | 35063 ft | 471 kts | 50° |
| 2026-05-06 18:50 | 57.41116 | 0.13599 | 35032 ft | 475 kts | 51° |
| 2026-05-06 18:51 | 57.44956 | 0.23627 | 35030 ft | 479 kts | 51° |
| 2026-05-06 18:51 | 57.48820 | 0.33750 | 35040 ft | 482 kts | 51° |
| 2026-05-06 18:52 | 57.52698 | 0.43938 | 35043 ft | 484 kts | 51° |
| 2026-05-06 18:52 | 57.56591 | 0.54188 | 35052 ft | 485 kts | 52° |
| 2026-05-06 18:53 | 57.60474 | 0.64491 | 35058 ft | 486 kts | 52° |
| 2026-05-06 18:53 | 57.64352 | 0.74827 | 35066 ft | 486 kts | 52° |
| 2026-05-06 18:54 | 57.68218 | 0.85206 | 35069 ft | 486 kts | 52° |
| 2026-05-06 18:54 | 57.72079 | 0.95582 | 35069 ft | 486 kts | 52° |
| 2026-05-06 18:55 | 57.75948 | 1.05982 | 35072 ft | 486 kts | 52° |
| 2026-05-06 18:55 | 57.79803 | 1.16394 | 35064 ft | 486 kts | 52° |
| 2026-05-06 18:56 | 57.83617 | 1.26784 | 35069 ft | 487 kts | 52° |
| 2026-05-06 18:56 | 57.87454 | 1.37269 | 35071 ft | 488 kts | 52° |
| 2026-05-06 18:57 | 57.91289 | 1.47798 | 35063 ft | 488 kts | 52° |
| 2026-05-06 18:57 | 57.94496 | 1.56644 | 35067 ft | 489 kts | 53° |
| 2026-05-06 18:58 | 57.98300 | 1.67172 | 35071 ft | 490 kts | 53° |
| 2026-05-06 18:58 | 58.02127 | 1.77812 | 35067 ft | 490 kts | 53° |
| 2026-05-06 18:59 | 58.05939 | 1.88466 | 35074 ft | 491 kts | 53° |
| 2026-05-06 18:59 | 58.09763 | 1.99174 | 35082 ft | 492 kts | 53° |
| 2026-05-06 19:00 | 58.13577 | 2.09906 | 35082 ft | 492 kts | 53° |
| 2026-05-06 19:00 | 58.17376 | 2.20682 | 35084 ft | 492 kts | 53° |
| 2026-05-06 19:01 | 58.21170 | 2.31479 | 35085 ft | 492 kts | 53° |
| 2026-05-06 19:01 | 58.24962 | 2.42293 | 35080 ft | 492 kts | 53° |
| 2026-05-06 19:02 | 58.28740 | 2.53142 | 35081 ft | 493 kts | 54° |
| 2026-05-06 19:02 | 58.32515 | 2.64023 | 35088 ft | 493 kts | 54° |
| 2026-05-06 19:03 | 58.36289 | 2.74922 | 35081 ft | 493 kts | 54° |
| 2026-05-06 19:03 | 58.40038 | 2.85874 | 35074 ft | 494 kts | 54° |
| 2026-05-06 19:04 | 58.43756 | 2.96886 | 35071 ft | 494 kts | 55° |
| 2026-05-06 19:04 | 58.47461 | 3.07930 | 35070 ft | 494 kts | 55° |
| 2026-05-06 19:05 | 58.51163 | 3.19018 | 35063 ft | 495 kts | 55° |
| 2026-05-06 19:05 | 58.54825 | 3.30065 | 35070 ft | 495 kts | 55° |
| 2026-05-06 19:06 | 58.58514 | 3.41219 | 35066 ft | 496 kts | 55° |
| 2026-05-06 19:06 | 58.62203 | 3.52387 | 35074 ft | 496 kts | 56° |
| 2026-05-06 19:07 | 58.65877 | 3.63599 | 35077 ft | 496 kts | 56° |
| 2026-05-06 19:07 | 58.69544 | 3.74833 | 35074 ft | 496 kts | 56° |
| 2026-05-06 19:08 | 58.73207 | 3.86105 | 35072 ft | 497 kts | 56° |
| 2026-05-06 19:08 | 58.76855 | 3.97400 | 35071 ft | 497 kts | 56° |
| 2026-05-06 19:09 | 58.80442 | 4.08543 | 35758 ft | 468 kts | 58° |
| 2026-05-06 19:09 | 58.82149 | 4.13871 | 35634 ft | 465 kts | 58° |
| 2026-05-06 19:09 | 58.83753 | 4.18921 | 35464 ft | 458 kts | 58° |
| 2026-05-06 19:09 | 58.85414 | 4.24142 | 35346 ft | 454 kts | 57° |
| 2026-05-06 19:10 | 58.87091 | 4.29395 | 35182 ft | 465 kts | 56° |
| 2026-05-06 19:10 | 58.88812 | 4.34782 | 35033 ft | 475 kts | 56° |
| 2026-05-06 19:10 | 58.90551 | 4.40244 | 35079 ft | 480 kts | 57° |
| 2026-05-06 19:11 | 58.94072 | 4.51394 | 35073 ft | 491 kts | 57° |
| 2026-05-06 19:11 | 58.97659 | 4.62791 | 35070 ft | 498 kts | 57° |
| 2026-05-06 19:12 | 59.01251 | 4.74307 | 35073 ft | 499 kts | 57° |
| 2026-05-06 19:12 | 59.04839 | 4.85852 | 35074 ft | 500 kts | 57° |
| 2026-05-06 19:13 | 59.08424 | 4.97424 | 35069 ft | 500 kts | 57° |
| 2026-05-06 19:13 | 59.11980 | 5.08944 | 35068 ft | 500 kts | 58° |
| 2026-05-06 19:14 | 59.15543 | 5.20572 | 35071 ft | 500 kts | 58° |
| 2026-05-06 19:14 | 59.19104 | 5.32235 | 35070 ft | 500 kts | 58° |
| 2026-05-06 19:15 | 59.22653 | 5.43910 | 35069 ft | 500 kts | 58° |
| 2026-05-06 19:15 | 59.26206 | 5.55576 | 35080 ft | 499 kts | 58° |
| 2026-05-06 19:16 | 59.29749 | 5.67228 | 35081 ft | 498 kts | 58° |
| 2026-05-06 19:16 | 59.33289 | 5.78882 | 35089 ft | 500 kts | 58° |
| 2026-05-06 19:17 | 59.36754 | 5.90752 | 35080 ft | 503 kts | 59° |
| 2026-05-06 19:17 | 59.40205 | 6.02683 | 35077 ft | 503 kts | 59° |
| 2026-05-06 19:18 | 59.43703 | 6.14598 | 35075 ft | 504 kts | 59° |
| 2026-05-06 19:18 | 59.47220 | 6.26519 | 35083 ft | 504 kts | 59° |
| 2026-05-06 19:19 | 59.50708 | 6.38490 | 35078 ft | 504 kts | 59° |
| 2026-05-06 19:19 | 59.54184 | 6.50506 | 35038 ft | 505 kts | 59° |
| 2026-05-06 19:20 | 59.57664 | 6.62532 | 35036 ft | 505 kts | 59° |
| 2026-05-06 19:20 | 59.61112 | 6.74535 | 35036 ft | 506 kts | 59° |
| 2026-05-06 19:21 | 59.64567 | 6.86653 | 35035 ft | 506 kts | 60° |
| 2026-05-06 19:21 | 59.68045 | 6.98884 | 35032 ft | 507 kts | 60° |
| 2026-05-06 19:22 | 59.71493 | 7.11077 | 35024 ft | 507 kts | 60° |
| 2026-05-06 19:22 | 59.74914 | 7.23300 | 35005 ft | 507 kts | 60° |
| 2026-05-06 19:23 | 59.78308 | 7.35486 | 34998 ft | 508 kts | 60° |
| 2026-05-06 19:23 | 59.81722 | 7.47777 | 34987 ft | 508 kts | 60° |
| 2026-05-06 19:24 | 59.85128 | 7.60101 | 34984 ft | 509 kts | 63° |
| 2026-05-06 19:24 | 59.87786 | 7.73165 | 34979 ft | 509 kts | 70° |
| 2026-05-06 19:25 | 59.90304 | 7.86359 | 34973 ft | 510 kts | 70° |
| 2026-05-06 19:25 | 59.92826 | 7.99596 | 34967 ft | 512 kts | 70° |
| 2026-05-06 19:26 | 59.95330 | 8.12887 | 34967 ft | 512 kts | 70° |
| 2026-05-06 19:26 | 59.97810 | 8.26223 | 34955 ft | 513 kts | 70° |
| 2026-05-06 19:27 | 60.00290 | 8.39595 | 34954 ft | 513 kts | 70° |
| 2026-05-06 19:27 | 60.02760 | 8.52971 | 34529 ft | 513 kts | 70° |
| 2026-05-06 19:27 | 60.03997 | 8.59717 | 33376 ft | 521 kts | 71° |
| 2026-05-06 19:28 | 60.05244 | 8.66563 | 32310 ft | 526 kts | 71° |
| 2026-05-06 19:28 | 60.06496 | 8.73480 | 31186 ft | 531 kts | 71° |
| 2026-05-06 19:28 | 60.07761 | 8.80478 | 29999 ft | 537 kts | 70° |
| 2026-05-06 19:28 | 60.09045 | 8.87555 | 28721 ft | 544 kts | 71° |
| 2026-05-06 19:29 | 60.10342 | 8.94705 | 27356 ft | 549 kts | 70° |
| 2026-05-06 19:29 | 60.11637 | 9.01886 | 26372 ft | 544 kts | 70° |
| 2026-05-06 19:29 | 60.12910 | 9.08988 | 25360 ft | 538 kts | 70° |
| 2026-05-06 19:29 | 60.14162 | 9.16017 | 24405 ft | 532 kts | 70° |
| 2026-05-06 19:30 | 60.15387 | 9.22940 | 23396 ft | 522 kts | 70° |
| 2026-05-06 19:30 | 60.16585 | 9.29741 | 22441 ft | 512 kts | 70° |
| 2026-05-06 19:30 | 60.17759 | 9.36413 | 21632 ft | 501 kts | 70° |
| 2026-05-06 19:30 | 60.18906 | 9.42938 | 20877 ft | 490 kts | 70° |
| 2026-05-06 19:31 | 60.20026 | 9.49339 | 20219 ft | 479 kts | 70° |
| 2026-05-06 19:31 | 60.21104 | 9.55536 | 20087 ft | 462 kts | 70° |
| 2026-05-06 19:31 | 60.23170 | 9.67486 | 19191 ft | 451 kts | 70° |
| 2026-05-06 19:32 | 60.24199 | 9.73439 | 18551 ft | 450 kts | 70° |
| 2026-05-06 19:32 | 60.25227 | 9.79400 | 17929 ft | 450 kts | 70° |
| 2026-05-06 19:32 | 60.26246 | 9.85334 | 17348 ft | 448 kts | 70° |
| 2026-05-06 19:32 | 60.27261 | 9.91269 | 16754 ft | 447 kts | 71° |
| 2026-05-06 19:33 | 60.28264 | 9.97174 | 16196 ft | 444 kts | 71° |
| 2026-05-06 19:33 | 60.29256 | 10.03049 | 15611 ft | 442 kts | 71° |
| 2026-05-06 19:33 | 60.30244 | 10.08899 | 15022 ft | 439 kts | 71° |
| 2026-05-06 19:33 | 60.31210 | 10.14623 | 14431 ft | 436 kts | 70° |
| 2026-05-06 19:34 | 60.32195 | 10.20467 | 13811 ft | 433 kts | 71° |
| 2026-05-06 19:34 | 60.33148 | 10.26130 | 13191 ft | 430 kts | 71° |
| 2026-05-06 19:34 | 60.34115 | 10.31888 | 12567 ft | 426 kts | 71° |
| 2026-05-06 19:34 | 60.35039 | 10.37423 | 12090 ft | 417 kts | 71° |
| 2026-05-06 19:35 | 60.35966 | 10.43015 | 11285 ft | 410 kts | 71° |
| 2026-05-06 19:35 | 60.36845 | 10.48347 | 10580 ft | 400 kts | 71° |
| 2026-05-06 19:35 | 60.37708 | 10.53579 | 9931 ft | 385 kts | 71° |
| 2026-05-06 19:35 | 60.38532 | 10.58607 | 9693 ft | 364 kts | 71° |
| 2026-05-06 19:36 | 60.39288 | 10.63231 | 9729 ft | 330 kts | 71° |
| 2026-05-06 19:36 | 60.39977 | 10.67464 | 9593 ft | 306 kts | 72° |
| 2026-05-06 19:36 | 60.40632 | 10.71470 | 9133 ft | 296 kts | 71° |
| 2026-05-06 19:36 | 60.41273 | 10.75395 | 8551 ft | 292 kts | 72° |
| 2026-05-06 19:37 | 60.41906 | 10.79272 | 7938 ft | 288 kts | 72° |
| 2026-05-06 19:37 | 60.42527 | 10.83094 | 7308 ft | 284 kts | 72° |
| 2026-05-06 19:37 | 60.43138 | 10.86877 | 6654 ft | 282 kts | 72° |
| 2026-05-06 19:37 | 60.43539 | 10.89371 | 6230 ft | 281 kts | 72° |
| 2026-05-06 19:38 | 60.44335 | 10.94312 | 5756 ft | 267 kts | 72° |
| 2026-05-06 19:38 | 60.44899 | 10.97804 | 5634 ft | 255 kts | 72° |
| 2026-05-06 19:38 | 60.45438 | 11.01156 | 5506 ft | 245 kts | 72° |
| 2026-05-06 19:38 | 60.45853 | 11.04426 | 5346 ft | 235 kts | 85° |
| 2026-05-06 19:39 | 60.45822 | 11.07695 | 5072 ft | 232 kts | 102° |
| 2026-05-06 19:39 | 60.45351 | 11.10766 | 4925 ft | 226 kts | 118° |
| 2026-05-06 19:39 | 60.44528 | 11.13388 | 4797 ft | 217 kts | 133° |
| 2026-05-06 19:39 | 60.43550 | 11.15699 | 4671 ft | 215 kts | 133° |
| 2026-05-06 19:40 | 60.42581 | 11.17997 | 4546 ft | 214 kts | 133° |
| 2026-05-06 19:40 | 60.41615 | 11.20288 | 4420 ft | 214 kts | 133° |
| 2026-05-06 19:40 | 60.40510 | 11.22238 | 4292 ft | 209 kts | 156° |
| 2026-05-06 19:40 | 60.39132 | 11.22991 | 4168 ft | 205 kts | 181° |
| 2026-05-06 19:41 | 60.37748 | 11.22512 | 4046 ft | 202 kts | 198° |
| 2026-05-06 19:41 | 60.36426 | 11.21730 | 3947 ft | 192 kts | 197° |
| 2026-05-06 19:41 | 60.35168 | 11.20998 | 3724 ft | 185 kts | 197° |
| 2026-05-06 19:41 | 60.33951 | 11.20288 | 3483 ft | 179 kts | 197° |
| 2026-05-06 19:42 | 60.32772 | 11.19601 | 3253 ft | 174 kts | 197° |
| 2026-05-06 19:42 | 60.31625 | 11.18933 | 3029 ft | 170 kts | 197° |
| 2026-05-06 19:42 | 60.30497 | 11.18275 | 2804 ft | 169 kts | 197° |
| 2026-05-06 19:42 | 60.29371 | 11.17619 | 2577 ft | 169 kts | 198° |
| 2026-05-06 19:43 | 60.28242 | 11.16963 | 2352 ft | 166 kts | 198° |
| 2026-05-06 19:43 | 60.27176 | 11.16345 | 2156 ft | 151 kts | 198° |
| 2026-05-06 19:43 | 60.26178 | 11.15765 | 1949 ft | 148 kts | 197° |
| 2026-05-06 19:43 | 60.25211 | 11.15202 | 1747 ft | 146 kts | 197° |
| 2026-05-06 19:44 | 60.24227 | 11.14631 | 1561 ft | 145 kts | 197° |
| 2026-05-06 19:44 | 60.23273 | 11.14081 | 1380 ft | 144 kts | 197° |
| 2026-05-06 19:44 | 60.22310 | 11.13534 | 1185 ft | 144 kts | 196° |
| 2026-05-06 19:44 | 60.21351 | 11.12978 | 988 ft | 143 kts | 198° |
| 2026-05-06 19:45 | 60.20399 | 11.12413 | 788 ft | 142 kts | 197° |
| 2026-05-06 19:45 | 60.19471 | 11.11873 | 680 ft | 131 kts | 197° |
| 2026-05-06 19:45 | 60.18739 | 11.11449 | 684 ft | 85 kts | 196° |
| 2026-05-06 19:45 | 60.18315 | 11.11204 | 682 ft | 43 kts | 197° |
| 2026-05-06 19:46 | 60.18095 | 11.11021 | 682 ft | 30 kts | 215° |
| 2026-05-06 19:46 | 60.18038 | 11.10830 | 678 ft | 12 kts | 270° |
| 2026-05-06 19:46 | 60.18047 | 11.10750 | 678 ft | 7 kts | 287° |
| 2026-05-06 19:46 | 60.18055 | 11.10696 | 677 ft | 0 kts | 287° |
| 2026-05-06 19:47 | 60.18057 | 11.10687 | 677 ft | 3 kts | 287° |
| 2026-05-06 19:47 | 60.18064 | 11.10635 | 677 ft | 6 kts | 286° |
| 2026-05-06 19:47 | 60.18073 | 11.10578 | 678 ft | 3 kts | 286° |
| 2026-05-06 19:47 | 60.18117 | 11.10526 | 679 ft | 13 kts | 10° |
| 2026-05-06 19:48 | 60.18201 | 11.10579 | 680 ft | 13 kts | 17° |
| 2026-05-06 19:48 | 60.18293 | 11.10630 | 680 ft | 14 kts | 16° |
| 2026-05-06 19:48 | 60.18390 | 11.10688 | 681 ft | 15 kts | 17° |
| 2026-05-06 19:48 | 60.18492 | 11.10746 | 681 ft | 16 kts | 15° |
| 2026-05-06 19:49 | 60.18603 | 11.10809 | 682 ft | 17 kts | 16° |
| 2026-05-06 19:49 | 60.18721 | 11.10877 | 680 ft | 18 kts | 16° |
| 2026-05-06 19:49 | 60.18848 | 11.10952 | 683 ft | 20 kts | 16° |